sensor_id;sensor_type;location;lat;lon;timestamp;temperature;humidity
18876;DHT22;9570;50.854;13.778;2022-12-10T00:01:42;2.10;99.90
18876;DHT22;9570;50.854;13.778;2022-12-10T00:04:08;2.10;99.90
18876;DHT22;9570;50.854;13.778;2022-12-10T00:06:35;2.00;99.90
18876;DHT22;9570;50.854;13.778;2022-12-10T00:09:02;1.90;99.90
18876;DHT22;9570;50.854;13.778;2022-12-10T00:11:28;1.80;99.90
18876;DHT22;9570;50.854;13.778;2022-12-10T00:13:54;1.90;99.90
18876;DHT22;9570;50.854;13.778;2022-12-10T00:16:22;1.90;99.90
18876;DHT22;9570;50.854;13.778;2022-12-10T00:18:48;1.90;99.90
18876;DHT22;9570;50.854;13.778;2022-12-10T00:21:17;1.80;99.90
18876;DHT22;9570;50.854;13.778;2022-12-10T00:23:43;1.80;99.90
18876;DHT22;9570;50.854;13.778;2022-12-10T00:26:12;1.80;99.90
18876;DHT22;9570;50.854;13.778;2022-12-10T00:28:38;1.70;99.90
18876;DHT22;9570;50.854;13.778;2022-12-10T00:31:07;1.70;99.90
18876;DHT22;9570;50.854;13.778;2022-12-10T00:33:34;1.70;99.90
18876;DHT22;9570;50.854;13.778;2022-12-10T00:36:06;1.60;99.90
18876;DHT22;9570;50.854;13.778;2022-12-10T00:38:32;1.60;99.90
18876;DHT22;9570;50.854;13.778;2022-12-10T00:40:58;1.50;99.90
18876;DHT22;9570;50.854;13.778;2022-12-10T00:43:23;1.50;99.90
18876;DHT22;9570;50.854;13.778;2022-12-10T00:45:49;1.50;99.90
18876;DHT22;9570;50.854;13.778;2022-12-10T00:48:14;1.50;99.90
18876;DHT22;9570;50.854;13.778;2022-12-10T00:50:40;1.50;99.90
18876;DHT22;9570;50.854;13.778;2022-12-10T00:53:05;1.50;99.90
18876;DHT22;9570;50.854;13.778;2022-12-10T00:55:31;1.50;99.90
18876;DHT22;9570;50.854;13.778;2022-12-10T00:57:56;1.50;99.90
18876;DHT22;9570;50.854;13.778;2022-12-10T01:00:22;1.50;99.90
18876;DHT22;9570;50.854;13.778;2022-12-10T01:02:47;1.50;99.90
18876;DHT22;9570;50.854;13.778;2022-12-10T01:05:13;1.50;99.90
18876;DHT22;9570;50.854;13.778;2022-12-10T01:07:38;1.50;99.90
18876;DHT22;9570;50.854;13.778;2022-12-10T01:10:04;1.60;99.90
18876;DHT22;9570;50.854;13.778;2022-12-10T01:12:29;1.70;99.90
18876;DHT22;9570;50.854;13.778;2022-12-10T01:14:55;1.70;99.90
18876;DHT22;9570;50.854;13.778;2022-12-10T01:17:20;1.70;99.90
18876;DHT22;9570;50.854;13.778;2022-12-10T01:19:47;1.60;99.90
18876;DHT22;9570;50.854;13.778;2022-12-10T01:22:12;1.60;99.90
18876;DHT22;9570;50.854;13.778;2022-12-10T01:24:38;1.60;99.90
18876;DHT22;9570;50.854;13.778;2022-12-10T01:27:04;1.60;99.90
18876;DHT22;9570;50.854;13.778;2022-12-10T01:29:29;1.50;99.90
18876;DHT22;9570;50.854;13.778;2022-12-10T01:31:56;1.60;99.90
18876;DHT22;9570;50.854;13.778;2022-12-10T01:34:23;1.60;99.90
18876;DHT22;9570;50.854;13.778;2022-12-10T01:36:51;1.60;99.90
18876;DHT22;9570;50.854;13.778;2022-12-10T01:39:18;1.60;99.90
18876;DHT22;9570;50.854;13.778;2022-12-10T01:41:53;1.60;99.90
18876;DHT22;9570;50.854;13.778;2022-12-10T01:46:47;1.50;99.90
18876;DHT22;9570;50.854;13.778;2022-12-10T01:51:42;1.50;99.90
18876;DHT22;9570;50.854;13.778;2022-12-10T01:54:12;1.50;99.90
18876;DHT22;9570;50.854;13.778;2022-12-10T01:56:41;1.40;99.90
18876;DHT22;9570;50.854;13.778;2022-12-10T01:59:07;1.50;99.90
18876;DHT22;9570;50.854;13.778;2022-12-10T02:06:48;1.50;99.90
18876;DHT22;9570;50.854;13.778;2022-12-10T02:09:42;1.50;99.90
18876;DHT22;9570;50.854;13.778;2022-12-10T02:14:51;1.40;99.90
18876;DHT22;9570;50.854;13.778;2022-12-10T02:17:22;1.40;99.90
18876;DHT22;9570;50.854;13.778;2022-12-10T02:20:00;1.50;99.90
18876;DHT22;9570;50.854;13.778;2022-12-10T02:22:31;1.50;99.90
18876;DHT22;9570;50.854;13.778;2022-12-10T02:24:59;1.50;99.90
18876;DHT22;9570;50.854;13.778;2022-12-10T02:27:44;1.50;99.90
18876;DHT22;9570;50.854;13.778;2022-12-10T02:30:11;1.60;99.90
18876;DHT22;9570;50.854;13.778;2022-12-10T02:32:39;1.60;99.90
18876;DHT22;9570;50.854;13.778;2022-12-10T02:35:17;1.70;99.90
18876;DHT22;9570;50.854;13.778;2022-12-10T02:37:48;1.70;99.90
18876;DHT22;9570;50.854;13.778;2022-12-10T02:40:22;1.80;99.90
18876;DHT22;9570;50.854;13.778;2022-12-10T02:42:50;1.70;99.90
18876;DHT22;9570;50.854;13.778;2022-12-10T02:45:18;1.70;99.90
18876;DHT22;9570;50.854;13.778;2022-12-10T02:47:44;1.80;99.90
18876;DHT22;9570;50.854;13.778;2022-12-10T02:50:10;1.80;99.90
18876;DHT22;9570;50.854;13.778;2022-12-10T02:52:38;1.80;99.90
18876;DHT22;9570;50.854;13.778;2022-12-10T02:55:04;1.90;99.90
18876;DHT22;9570;50.854;13.778;2022-12-10T02:57:35;1.80;99.90
18876;DHT22;9570;50.854;13.778;2022-12-10T03:00:04;1.80;99.90
18876;DHT22;9570;50.854;13.778;2022-12-10T03:08:27;1.60;99.90
18876;DHT22;9570;50.854;13.778;2022-12-10T03:11:17;1.50;99.90
18876;DHT22;9570;50.854;13.778;2022-12-10T03:16:29;1.40;99.90
18876;DHT22;9570;50.854;13.778;2022-12-10T03:18:57;1.30;99.90
18876;DHT22;9570;50.854;13.778;2022-12-10T03:21:26;1.30;99.90
18876;DHT22;9570;50.854;13.778;2022-12-10T03:23:52;1.40;99.90
18876;DHT22;9570;50.854;13.778;2022-12-10T03:26:20;1.40;99.90
18876;DHT22;9570;50.854;13.778;2022-12-10T03:28:50;1.40;99.90
18876;DHT22;9570;50.854;13.778;2022-12-10T03:31:17;1.30;99.90
18876;DHT22;9570;50.854;13.778;2022-12-10T03:33:43;1.30;99.90
18876;DHT22;9570;50.854;13.778;2022-12-10T03:36:10;1.40;99.90
18876;DHT22;9570;50.854;13.778;2022-12-10T03:38:37;1.40;99.90
18876;DHT22;9570;50.854;13.778;2022-12-10T03:41:03;1.50;99.90
18876;DHT22;9570;50.854;13.778;2022-12-10T03:43:29;1.50;99.90
18876;DHT22;9570;50.854;13.778;2022-12-10T03:45:54;1.40;99.90
18876;DHT22;9570;50.854;13.778;2022-12-10T03:48:20;1.40;99.90
18876;DHT22;9570;50.854;13.778;2022-12-10T03:50:45;1.40;99.90
18876;DHT22;9570;50.854;13.778;2022-12-10T03:53:12;1.40;99.90
18876;DHT22;9570;50.854;13.778;2022-12-10T03:55:37;1.30;99.90
18876;DHT22;9570;50.854;13.778;2022-12-10T03:58:03;1.40;99.90
18876;DHT22;9570;50.854;13.778;2022-12-10T04:00:28;1.40;99.90
18876;DHT22;9570;50.854;13.778;2022-12-10T04:02:54;1.50;99.90
18876;DHT22;9570;50.854;13.778;2022-12-10T04:05:19;1.50;99.90
18876;DHT22;9570;50.854;13.778;2022-12-10T04:07:45;1.40;99.90
18876;DHT22;9570;50.854;13.778;2022-12-10T04:10:10;1.40;99.90
18876;DHT22;9570;50.854;13.778;2022-12-10T04:12:36;1.30;99.90
18876;DHT22;9570;50.854;13.778;2022-12-10T04:15:02;1.30;99.90
18876;DHT22;9570;50.854;13.778;2022-12-10T04:17:53;1.40;99.90
18876;DHT22;9570;50.854;13.778;2022-12-10T04:20:19;1.60;99.90
18876;DHT22;9570;50.854;13.778;2022-12-10T04:23:03;1.70;99.90
18876;DHT22;9570;50.854;13.778;2022-12-10T04:25:47;1.70;99.90
18876;DHT22;9570;50.854;13.778;2022-12-10T04:28:31;1.80;99.90
18876;DHT22;9570;50.854;13.778;2022-12-10T04:30:56;1.70;99.90
18876;DHT22;9570;50.854;13.778;2022-12-10T04:33:22;1.70;99.90
18876;DHT22;9570;50.854;13.778;2022-12-10T04:35:47;1.70;99.90
18876;DHT22;9570;50.854;13.778;2022-12-10T04:38:13;1.50;99.90
18876;DHT22;9570;50.854;13.778;2022-12-10T04:40:38;1.40;99.90
18876;DHT22;9570;50.854;13.778;2022-12-10T04:43:04;1.30;99.90
18876;DHT22;9570;50.854;13.778;2022-12-10T04:45:29;1.20;99.90
18876;DHT22;9570;50.854;13.778;2022-12-10T04:47:55;1.20;99.90
18876;DHT22;9570;50.854;13.778;2022-12-10T04:50:20;1.20;99.90
18876;DHT22;9570;50.854;13.778;2022-12-10T04:52:46;1.30;99.90
18876;DHT22;9570;50.854;13.778;2022-12-10T04:55:11;1.20;99.90
18876;DHT22;9570;50.854;13.778;2022-12-10T04:57:37;1.30;99.90
18876;DHT22;9570;50.854;13.778;2022-12-10T05:00:03;1.30;99.90
18876;DHT22;9570;50.854;13.778;2022-12-10T05:02:28;1.30;99.90
18876;DHT22;9570;50.854;13.778;2022-12-10T05:04:54;1.30;99.90
18876;DHT22;9570;50.854;13.778;2022-12-10T05:07:19;1.30;99.90
18876;DHT22;9570;50.854;13.778;2022-12-10T05:09:45;1.30;99.90
18876;DHT22;9570;50.854;13.778;2022-12-10T05:12:10;1.30;99.90
18876;DHT22;9570;50.854;13.778;2022-12-10T05:14:36;1.30;99.90
18876;DHT22;9570;50.854;13.778;2022-12-10T05:17:02;1.30;99.90
18876;DHT22;9570;50.854;13.778;2022-12-10T05:19:27;1.50;99.90
18876;DHT22;9570;50.854;13.778;2022-12-10T05:21:53;1.40;99.90
18876;DHT22;9570;50.854;13.778;2022-12-10T05:24:38;1.20;99.90
18876;DHT22;9570;50.854;13.778;2022-12-10T05:27:04;1.20;99.90
18876;DHT22;9570;50.854;13.778;2022-12-10T05:29:29;1.20;99.90
18876;DHT22;9570;50.854;13.778;2022-12-10T05:31:55;1.30;99.90
18876;DHT22;9570;50.854;13.778;2022-12-10T05:34:21;1.20;99.90
18876;DHT22;9570;50.854;13.778;2022-12-10T05:36:47;1.30;99.90
18876;DHT22;9570;50.854;13.778;2022-12-10T05:39:12;1.30;99.90
18876;DHT22;9570;50.854;13.778;2022-12-10T05:41:39;1.30;99.90
18876;DHT22;9570;50.854;13.778;2022-12-10T05:44:05;1.40;99.90
18876;DHT22;9570;50.854;13.778;2022-12-10T05:46:32;1.30;99.90
18876;DHT22;9570;50.854;13.778;2022-12-10T05:48:59;1.30;99.90
18876;DHT22;9570;50.854;13.778;2022-12-10T05:51:28;1.40;99.90
18876;DHT22;9570;50.854;13.778;2022-12-10T05:53:54;1.50;99.90
18876;DHT22;9570;50.854;13.778;2022-12-10T05:56:22;1.50;99.90
18876;DHT22;9570;50.854;13.778;2022-12-10T05:58:50;1.50;99.90
18876;DHT22;9570;50.854;13.778;2022-12-10T06:01:19;1.60;99.90
18876;DHT22;9570;50.854;13.778;2022-12-10T06:03:45;1.60;99.90
18876;DHT22;9570;50.854;13.778;2022-12-10T06:06:11;1.60;99.90
18876;DHT22;9570;50.854;13.778;2022-12-10T06:08:37;1.60;99.90
18876;DHT22;9570;50.854;13.778;2022-12-10T06:11:05;1.60;99.90
18876;DHT22;9570;50.854;13.778;2022-12-10T06:13:30;1.60;99.90
18876;DHT22;9570;50.854;13.778;2022-12-10T06:15:56;1.60;99.90
18876;DHT22;9570;50.854;13.778;2022-12-10T06:18:21;1.70;99.90
18876;DHT22;9570;50.854;13.778;2022-12-10T06:20:47;1.70;99.90
18876;DHT22;9570;50.854;13.778;2022-12-10T06:23:13;1.80;99.90
18876;DHT22;9570;50.854;13.778;2022-12-10T06:25:39;1.80;99.90
18876;DHT22;9570;50.854;13.778;2022-12-10T06:28:05;1.80;99.90
18876;DHT22;9570;50.854;13.778;2022-12-10T06:30:31;1.70;99.90
18876;DHT22;9570;50.854;13.778;2022-12-10T06:32:57;1.60;99.90
18876;DHT22;9570;50.854;13.778;2022-12-10T06:35:23;1.60;99.90
18876;DHT22;9570;50.854;13.778;2022-12-10T06:37:49;1.50;99.90
18876;DHT22;9570;50.854;13.778;2022-12-10T06:40:15;1.50;99.90
18876;DHT22;9570;50.854;13.778;2022-12-10T06:42:40;1.50;99.90
18876;DHT22;9570;50.854;13.778;2022-12-10T06:45:06;1.50;99.90
18876;DHT22;9570;50.854;13.778;2022-12-10T06:47:32;1.50;99.90
18876;DHT22;9570;50.854;13.778;2022-12-10T06:49:57;1.60;99.90
18876;DHT22;9570;50.854;13.778;2022-12-10T06:52:23;1.70;99.90
18876;DHT22;9570;50.854;13.778;2022-12-10T06:54:49;1.70;99.90
18876;DHT22;9570;50.854;13.778;2022-12-10T06:57:16;1.80;99.90
18876;DHT22;9570;50.854;13.778;2022-12-10T06:59:41;1.80;99.90
18876;DHT22;9570;50.854;13.778;2022-12-10T07:02:09;1.70;99.90
18876;DHT22;9570;50.854;13.778;2022-12-10T07:04:35;1.80;99.90
18876;DHT22;9570;50.854;13.778;2022-12-10T07:07:01;1.80;99.90
18876;DHT22;9570;50.854;13.778;2022-12-10T07:09:26;1.60;99.90
18876;DHT22;9570;50.854;13.778;2022-12-10T07:11:52;1.60;99.90
18876;DHT22;9570;50.854;13.778;2022-12-10T07:14:19;1.60;99.90
18876;DHT22;9570;50.854;13.778;2022-12-10T07:16:44;1.60;99.90
18876;DHT22;9570;50.854;13.778;2022-12-10T07:19:11;1.60;99.90
18876;DHT22;9570;50.854;13.778;2022-12-10T07:21:39;1.60;99.90
18876;DHT22;9570;50.854;13.778;2022-12-10T07:24:07;1.70;99.90
18876;DHT22;9570;50.854;13.778;2022-12-10T07:26:37;1.60;99.90
18876;DHT22;9570;50.854;13.778;2022-12-10T07:29:04;1.70;99.90
18876;DHT22;9570;50.854;13.778;2022-12-10T07:31:31;1.70;99.90
18876;DHT22;9570;50.854;13.778;2022-12-10T07:33:58;1.70;99.90
18876;DHT22;9570;50.854;13.778;2022-12-10T07:36:24;1.60;99.90
18876;DHT22;9570;50.854;13.778;2022-12-10T07:38:51;1.70;99.90
18876;DHT22;9570;50.854;13.778;2022-12-10T07:41:17;1.70;99.90
18876;DHT22;9570;50.854;13.778;2022-12-10T07:43:44;1.80;99.90
18876;DHT22;9570;50.854;13.778;2022-12-10T07:46:13;1.70;99.90
18876;DHT22;9570;50.854;13.778;2022-12-10T07:48:41;1.60;99.90
18876;DHT22;9570;50.854;13.778;2022-12-10T07:51:07;1.60;99.90
18876;DHT22;9570;50.854;13.778;2022-12-10T07:53:33;1.60;99.90
18876;DHT22;9570;50.854;13.778;2022-12-10T07:55:59;1.60;99.90
18876;DHT22;9570;50.854;13.778;2022-12-10T07:58:25;1.60;99.90
18876;DHT22;9570;50.854;13.778;2022-12-10T08:00:50;1.70;99.90
18876;DHT22;9570;50.854;13.778;2022-12-10T08:03:16;1.80;99.90
18876;DHT22;9570;50.854;13.778;2022-12-10T08:05:42;1.70;99.90
18876;DHT22;9570;50.854;13.778;2022-12-10T08:08:07;1.70;99.90
18876;DHT22;9570;50.854;13.778;2022-12-10T08:10:34;1.70;99.90
18876;DHT22;9570;50.854;13.778;2022-12-10T08:13:00;1.80;99.90
18876;DHT22;9570;50.854;13.778;2022-12-10T08:15:25;1.80;99.90
18876;DHT22;9570;50.854;13.778;2022-12-10T08:17:53;1.80;99.90
18876;DHT22;9570;50.854;13.778;2022-12-10T08:20:19;1.70;99.90
18876;DHT22;9570;50.854;13.778;2022-12-10T08:22:44;1.70;99.90
18876;DHT22;9570;50.854;13.778;2022-12-10T08:25:10;1.70;99.90
18876;DHT22;9570;50.854;13.778;2022-12-10T08:27:35;1.60;99.90
18876;DHT22;9570;50.854;13.778;2022-12-10T08:30:01;1.60;99.90
18876;DHT22;9570;50.854;13.778;2022-12-10T08:32:26;1.70;99.90
18876;DHT22;9570;50.854;13.778;2022-12-10T08:34:52;1.70;99.90
18876;DHT22;9570;50.854;13.778;2022-12-10T08:37:17;1.70;99.90
18876;DHT22;9570;50.854;13.778;2022-12-10T08:39:43;1.70;99.90
18876;DHT22;9570;50.854;13.778;2022-12-10T08:42:08;1.60;99.90
18876;DHT22;9570;50.854;13.778;2022-12-10T08:44:34;1.60;99.90
18876;DHT22;9570;50.854;13.778;2022-12-10T08:46:59;1.70;99.90
18876;DHT22;9570;50.854;13.778;2022-12-10T08:49:25;1.80;99.90
18876;DHT22;9570;50.854;13.778;2022-12-10T08:51:50;1.80;99.90
18876;DHT22;9570;50.854;13.778;2022-12-10T08:54:16;1.80;99.90
18876;DHT22;9570;50.854;13.778;2022-12-10T08:56:41;1.70;99.90
18876;DHT22;9570;50.854;13.778;2022-12-10T08:59:07;1.70;99.90
18876;DHT22;9570;50.854;13.778;2022-12-10T09:01:33;1.70;99.90
18876;DHT22;9570;50.854;13.778;2022-12-10T09:03:58;1.80;99.90
18876;DHT22;9570;50.854;13.778;2022-12-10T09:06:25;1.70;99.90
18876;DHT22;9570;50.854;13.778;2022-12-10T09:08:51;1.70;99.90
18876;DHT22;9570;50.854;13.778;2022-12-10T09:11:20;1.80;99.90
18876;DHT22;9570;50.854;13.778;2022-12-10T09:13:46;1.90;99.90
18876;DHT22;9570;50.854;13.778;2022-12-10T09:16:12;2.00;99.90
18876;DHT22;9570;50.854;13.778;2022-12-10T09:18:37;2.00;99.90
18876;DHT22;9570;50.854;13.778;2022-12-10T09:21:08;2.00;99.90
18876;DHT22;9570;50.854;13.778;2022-12-10T09:23:34;2.00;99.90
18876;DHT22;9570;50.854;13.778;2022-12-10T09:26:00;2.10;99.90
18876;DHT22;9570;50.854;13.778;2022-12-10T09:28:25;2.10;99.90
18876;DHT22;9570;50.854;13.778;2022-12-10T09:30:56;2.20;99.90
18876;DHT22;9570;50.854;13.778;2022-12-10T09:33:22;2.10;99.90
18876;DHT22;9570;50.854;13.778;2022-12-10T09:35:47;2.10;99.90
18876;DHT22;9570;50.854;13.778;2022-12-10T09:38:13;2.10;99.90
18876;DHT22;9570;50.854;13.778;2022-12-10T09:40:45;2.00;99.90
18876;DHT22;9570;50.854;13.778;2022-12-10T09:51:36;2.20;99.90
18876;DHT22;9570;50.854;13.778;2022-12-10T09:54:18;2.20;99.90
18876;DHT22;9570;50.854;13.778;2022-12-10T09:56:44;2.20;99.90
18876;DHT22;9570;50.854;13.778;2022-12-10T09:59:37;2.30;99.90
18876;DHT22;9570;50.854;13.778;2022-12-10T10:02:25;2.30;99.90
18876;DHT22;9570;50.854;13.778;2022-12-10T10:04:56;2.40;99.90
18876;DHT22;9570;50.854;13.778;2022-12-10T10:07:26;2.40;99.90
18876;DHT22;9570;50.854;13.778;2022-12-10T10:09:59;2.40;99.90
18876;DHT22;9570;50.854;13.778;2022-12-10T10:12:31;2.30;99.90
18876;DHT22;9570;50.854;13.778;2022-12-10T10:14:58;2.30;99.90
18876;DHT22;9570;50.854;13.778;2022-12-10T10:17:33;2.20;99.90
18876;DHT22;9570;50.854;13.778;2022-12-10T10:20:00;2.20;99.90
18876;DHT22;9570;50.854;13.778;2022-12-10T10:22:26;2.10;99.90
18876;DHT22;9570;50.854;13.778;2022-12-10T10:24:52;2.10;99.90
18876;DHT22;9570;50.854;13.778;2022-12-10T10:27:20;2.00;99.90
18876;DHT22;9570;50.854;13.778;2022-12-10T10:29:52;2.00;99.90
18876;DHT22;9570;50.854;13.778;2022-12-10T10:32:20;1.90;99.90
18876;DHT22;9570;50.854;13.778;2022-12-10T10:34:52;1.80;99.90
18876;DHT22;9570;50.854;13.778;2022-12-10T10:37:22;1.80;99.90
18876;DHT22;9570;50.854;13.778;2022-12-10T10:39:50;1.80;99.90
18876;DHT22;9570;50.854;13.778;2022-12-10T10:42:27;1.90;99.90
18876;DHT22;9570;50.854;13.778;2022-12-10T10:44:56;1.90;99.90
18876;DHT22;9570;50.854;13.778;2022-12-10T10:47:30;1.90;99.90
18876;DHT22;9570;50.854;13.778;2022-12-10T10:49:56;2.00;99.90
18876;DHT22;9570;50.854;13.778;2022-12-10T10:52:22;2.20;99.90
18876;DHT22;9570;50.854;13.778;2022-12-10T10:54:52;2.20;99.90
18876;DHT22;9570;50.854;13.778;2022-12-10T10:57:23;2.20;99.90
18876;DHT22;9570;50.854;13.778;2022-12-10T10:59:51;2.30;99.90
18876;DHT22;9570;50.854;13.778;2022-12-10T11:02:30;2.40;99.90
18876;DHT22;9570;50.854;13.778;2022-12-10T11:04:56;2.40;99.90
18876;DHT22;9570;50.854;13.778;2022-12-10T11:07:37;2.30;99.90
18876;DHT22;9570;50.854;13.778;2022-12-10T11:10:15;2.20;99.90
18876;DHT22;9570;50.854;13.778;2022-12-10T11:12:41;2.10;99.90
18876;DHT22;9570;50.854;13.778;2022-12-10T11:17:55;2.30;99.90
18876;DHT22;9570;50.854;13.778;2022-12-10T11:20:30;2.20;99.90
18876;DHT22;9570;50.854;13.778;2022-12-10T11:23:08;2.10;99.90
18876;DHT22;9570;50.854;13.778;2022-12-10T11:25:53;2.20;99.90
18876;DHT22;9570;50.854;13.778;2022-12-10T11:34:11;2.20;99.90
18876;DHT22;9570;50.854;13.778;2022-12-10T11:45:31;2.20;99.90
18876;DHT22;9570;50.854;13.778;2022-12-10T11:48:26;2.20;99.90
18876;DHT22;9570;50.854;13.778;2022-12-10T11:54:34;2.10;99.90
18876;DHT22;9570;50.854;13.778;2022-12-10T11:57:48;1.90;99.90
18876;DHT22;9570;50.854;13.778;2022-12-10T12:02:40;1.70;99.90
18876;DHT22;9570;50.854;13.778;2022-12-10T12:05:28;1.80;99.90
18876;DHT22;9570;50.854;13.778;2022-12-10T12:11:15;1.90;99.90
18876;DHT22;9570;50.854;13.778;2022-12-10T12:16:34;1.60;99.90
18876;DHT22;9570;50.854;13.778;2022-12-10T12:19:12;1.50;99.90
18876;DHT22;9570;50.854;13.778;2022-12-10T12:21:40;1.60;99.90
18876;DHT22;9570;50.854;13.778;2022-12-10T12:24:16;1.60;99.90
18876;DHT22;9570;50.854;13.778;2022-12-10T12:26:46;1.60;99.90
18876;DHT22;9570;50.854;13.778;2022-12-10T12:29:21;1.60;99.90
18876;DHT22;9570;50.854;13.778;2022-12-10T12:31:59;1.70;99.90
18876;DHT22;9570;50.854;13.778;2022-12-10T12:34:44;1.60;99.90
18876;DHT22;9570;50.854;13.778;2022-12-10T12:37:14;1.70;99.90
18876;DHT22;9570;50.854;13.778;2022-12-10T12:42:46;1.60;99.90
18876;DHT22;9570;50.854;13.778;2022-12-10T12:45:29;1.60;99.90
18876;DHT22;9570;50.854;13.778;2022-12-10T12:50:34;1.50;99.90
18876;DHT22;9570;50.854;13.778;2022-12-10T12:53:09;1.50;99.90
18876;DHT22;9570;50.854;13.778;2022-12-10T12:55:59;1.40;99.90
18876;DHT22;9570;50.854;13.778;2022-12-10T13:01:29;1.40;99.90
18876;DHT22;9570;50.854;13.778;2022-12-10T13:03:56;1.40;99.90
18876;DHT22;9570;50.854;13.778;2022-12-10T13:06:30;1.50;99.90
18876;DHT22;9570;50.854;13.778;2022-12-10T13:09:16;1.50;99.90
18876;DHT22;9570;50.854;13.778;2022-12-10T13:12:16;1.40;99.90
18876;DHT22;9570;50.854;13.778;2022-12-10T13:14:35;1.40;99.90
18876;DHT22;9570;50.854;13.778;2022-12-10T13:17:07;1.40;99.90
18876;DHT22;9570;50.854;13.778;2022-12-10T13:19:33;1.40;99.90
18876;DHT22;9570;50.854;13.778;2022-12-10T13:22:11;1.40;99.90
18876;DHT22;9570;50.854;13.778;2022-12-10T13:27:03;1.40;99.90
18876;DHT22;9570;50.854;13.778;2022-12-10T13:37:35;1.50;99.90
18876;DHT22;9570;50.854;13.778;2022-12-10T13:42:33;1.50;99.90
18876;DHT22;9570;50.854;13.778;2022-12-10T13:47:55;1.50;99.90
18876;DHT22;9570;50.854;13.778;2022-12-10T13:58:45;1.40;99.90
18876;DHT22;9570;50.854;13.778;2022-12-10T14:01:38;1.40;99.90
18876;DHT22;9570;50.854;13.778;2022-12-10T14:07:16;1.30;99.90
18876;DHT22;9570;50.854;13.778;2022-12-10T14:09:49;1.40;99.90
18876;DHT22;9570;50.854;13.778;2022-12-10T14:12:21;1.30;99.90
18876;DHT22;9570;50.854;13.778;2022-12-10T14:14:55;1.20;99.90
18876;DHT22;9570;50.854;13.778;2022-12-10T14:17:24;1.10;99.90
18876;DHT22;9570;50.854;13.778;2022-12-10T14:19:54;1.10;99.90
18876;DHT22;9570;50.854;13.778;2022-12-10T14:22:30;1.10;99.90
18876;DHT22;9570;50.854;13.778;2022-12-10T14:25:00;1.10;99.90
18876;DHT22;9570;50.854;13.778;2022-12-10T14:27:27;1.10;99.90
18876;DHT22;9570;50.854;13.778;2022-12-10T14:30:03;1.10;99.90
18876;DHT22;9570;50.854;13.778;2022-12-10T14:32:34;1.10;99.90
18876;DHT22;9570;50.854;13.778;2022-12-10T14:35:02;1.00;99.90
18876;DHT22;9570;50.854;13.778;2022-12-10T14:37:31;1.00;99.90
18876;DHT22;9570;50.854;13.778;2022-12-10T14:39:59;0.90;99.90
18876;DHT22;9570;50.854;13.778;2022-12-10T14:42:25;0.90;99.90
18876;DHT22;9570;50.854;13.778;2022-12-10T14:44:57;0.90;99.90
18876;DHT22;9570;50.854;13.778;2022-12-10T14:47:23;0.90;99.90
18876;DHT22;9570;50.854;13.778;2022-12-10T14:49:52;0.80;99.90
18876;DHT22;9570;50.854;13.778;2022-12-10T14:52:21;0.90;99.90
18876;DHT22;9570;50.854;13.778;2022-12-10T14:54:47;0.90;99.90
18876;DHT22;9570;50.854;13.778;2022-12-10T14:57:34;0.80;99.90
18876;DHT22;9570;50.854;13.778;2022-12-10T15:00:21;0.90;99.90
18876;DHT22;9570;50.854;13.778;2022-12-10T15:02:52;0.70;99.90
18876;DHT22;9570;50.854;13.778;2022-12-10T15:05:25;0.70;99.90
18876;DHT22;9570;50.854;13.778;2022-12-10T15:08:00;0.70;99.90
18876;DHT22;9570;50.854;13.778;2022-12-10T15:10:48;0.70;99.90
18876;DHT22;9570;50.854;13.778;2022-12-10T15:13:39;0.70;99.90
18876;DHT22;9570;50.854;13.778;2022-12-10T15:16:05;0.70;99.90
18876;DHT22;9570;50.854;13.778;2022-12-10T15:18:38;0.80;99.90
18876;DHT22;9570;50.854;13.778;2022-12-10T15:21:09;0.80;99.90
18876;DHT22;9570;50.854;13.778;2022-12-10T15:23:36;0.80;99.90
18876;DHT22;9570;50.854;13.778;2022-12-10T15:26:23;0.70;99.90
18876;DHT22;9570;50.854;13.778;2022-12-10T15:29:15;0.70;99.90
18876;DHT22;9570;50.854;13.778;2022-12-10T15:31:38;0.60;99.90
18876;DHT22;9570;50.854;13.778;2022-12-10T15:34:12;0.50;99.90
18876;DHT22;9570;50.854;13.778;2022-12-10T15:36:41;0.50;99.90
18876;DHT22;9570;50.854;13.778;2022-12-10T15:41:51;0.60;99.90
18876;DHT22;9570;50.854;13.778;2022-12-10T15:46:59;0.70;99.90
18876;DHT22;9570;50.854;13.778;2022-12-10T15:49:25;0.80;99.90
18876;DHT22;9570;50.854;13.778;2022-12-10T15:51:51;0.90;99.90
18876;DHT22;9570;50.854;13.778;2022-12-10T15:54:23;0.80;99.90
18876;DHT22;9570;50.854;13.778;2022-12-10T15:56:52;0.80;99.90
18876;DHT22;9570;50.854;13.778;2022-12-10T15:59:17;0.80;99.90
18876;DHT22;9570;50.854;13.778;2022-12-10T16:01:43;0.70;99.90
18876;DHT22;9570;50.854;13.778;2022-12-10T16:04:09;0.60;99.90
18876;DHT22;9570;50.854;13.778;2022-12-10T16:06:34;0.70;99.90
18876;DHT22;9570;50.854;13.778;2022-12-10T16:09:00;0.70;99.90
18876;DHT22;9570;50.854;13.778;2022-12-10T16:11:25;0.70;99.90
18876;DHT22;9570;50.854;13.778;2022-12-10T16:13:53;0.70;99.90
18876;DHT22;9570;50.854;13.778;2022-12-10T16:16:20;0.80;99.90
18876;DHT22;9570;50.854;13.778;2022-12-10T16:18:46;0.80;99.90
18876;DHT22;9570;50.854;13.778;2022-12-10T16:21:12;0.80;99.90
18876;DHT22;9570;50.854;13.778;2022-12-10T16:23:38;0.90;99.90
18876;DHT22;9570;50.854;13.778;2022-12-10T16:26:16;0.90;99.90
18876;DHT22;9570;50.854;13.778;2022-12-10T16:28:43;0.80;99.90
18876;DHT22;9570;50.854;13.778;2022-12-10T16:31:12;0.80;99.90
18876;DHT22;9570;50.854;13.778;2022-12-10T16:33:38;0.90;99.90
18876;DHT22;9570;50.854;13.778;2022-12-10T16:36:04;1.00;99.90
18876;DHT22;9570;50.854;13.778;2022-12-10T16:38:30;1.10;99.90
18876;DHT22;9570;50.854;13.778;2022-12-10T16:40:56;1.10;99.90
18876;DHT22;9570;50.854;13.778;2022-12-10T16:43:26;1.00;99.90
18876;DHT22;9570;50.854;13.778;2022-12-10T16:45:54;1.00;99.90
18876;DHT22;9570;50.854;13.778;2022-12-10T16:48:20;1.00;99.90
18876;DHT22;9570;50.854;13.778;2022-12-10T16:50:46;0.90;99.90
18876;DHT22;9570;50.854;13.778;2022-12-10T16:53:20;0.90;99.90
18876;DHT22;9570;50.854;13.778;2022-12-10T16:55:46;0.70;99.90
18876;DHT22;9570;50.854;13.778;2022-12-10T16:58:13;0.80;99.90
18876;DHT22;9570;50.854;13.778;2022-12-10T17:00:44;0.80;99.90
18876;DHT22;9570;50.854;13.778;2022-12-10T17:03:18;0.70;99.90
18876;DHT22;9570;50.854;13.778;2022-12-10T17:05:52;0.70;99.90
18876;DHT22;9570;50.854;13.778;2022-12-10T17:08:18;0.80;99.90
18876;DHT22;9570;50.854;13.778;2022-12-10T17:10:45;0.90;99.90
18876;DHT22;9570;50.854;13.778;2022-12-10T17:13:29;1.00;99.90
18876;DHT22;9570;50.854;13.778;2022-12-10T17:15:55;1.00;99.90
18876;DHT22;9570;50.854;13.778;2022-12-10T17:18:21;0.90;99.90
18876;DHT22;9570;50.854;13.778;2022-12-10T17:20:47;1.00;99.90
18876;DHT22;9570;50.854;13.778;2022-12-10T17:23:13;1.10;99.90
18876;DHT22;9570;50.854;13.778;2022-12-10T17:25:40;1.10;99.90
18876;DHT22;9570;50.854;13.778;2022-12-10T17:28:10;1.00;99.90
18876;DHT22;9570;50.854;13.778;2022-12-10T17:30:37;0.90;99.90
18876;DHT22;9570;50.854;13.778;2022-12-10T17:33:02;1.00;99.90
18876;DHT22;9570;50.854;13.778;2022-12-10T17:35:28;1.00;99.90
18876;DHT22;9570;50.854;13.778;2022-12-10T17:37:53;1.00;99.90